Time;durP1;ratioP1;P1;durP2;ratioP2;P2;SDS_P1;SDS_P2;PMS_P1;PMS_P2;Temp;Humidity;BMP_temperature;BMP_pressure;BME280_temperature;BME280_humidity;BME280_pressure;Samples;Min_cycle;Max_cycle;Signal;HPM_P1;HPM_P2
2024/04/11 00:02:22;;;;;;;6.65;3.42;;;6.90;91.70;;;;;;5365814;26;20001;-89
2024/04/11 00:04:47;;;;;;;5.18;3.20;;;7.00;90.90;;;;;;5352911;26;20581;-89
2024/04/11 00:07:13;;;;;;;5.97;4.05;;;6.80;90.30;;;;;;5362703;26;20052;-88
2024/04/11 00:09:39;;;;;;;4.28;3.40;;;6.70;91.10;;;;;;5366318;26;20000;-89
2024/04/11 00:12:05;;;;;;;7.10;4.43;;;6.70;91.40;;;;;;5350659;26;20004;-89
2024/04/11 00:14:30;;;;;;;7.38;3.55;;;6.70;91.20;;;;;;5362171;26;20499;-89
2024/04/11 00:16:57;;;;;;;6.18;4.63;;;6.60;92.30;;;;;;5359287;26;20001;-88
2024/04/11 00:19:23;;;;;;;5.50;3.95;;;6.60;92.40;;;;;;5363490;26;19996;-89
2024/04/11 00:21:49;;;;;;;8.70;3.33;;;6.60;92.10;;;;;;5353855;26;20051;-89
2024/04/11 00:24:15;;;;;;;7.93;3.53;;;6.60;92.30;;;;;;5364759;26;20004;-89
2024/04/11 00:26:41;;;;;;;5.85;3.45;;;6.70;91.70;;;;;;5360523;26;19996;-88
2024/04/11 00:29:10;;;;;;;6.25;3.22;;;6.70;91.60;;;;;;5368461;26;20004;-89
2024/04/11 00:31:36;;;;;;;5.85;3.58;;;6.60;91.10;;;;;;5358093;26;20012;-89
2024/04/11 00:34:23;;;;;;;5.30;3.65;;;6.60;91.30;;;;;;5360328;26;20025;-88
2024/04/11 00:36:53;;;;;;;5.68;3.60;;;6.50;91.60;;;;;;5367413;26;20018;-89
2024/04/11 00:39:20;;;;;;;5.43;3.65;;;6.60;91.10;;;;;;5348730;26;20088;-88
2024/04/11 00:41:46;;;;;;;5.32;3.47;;;6.50;90.90;;;;;;5348886;26;20005;-89
2024/04/11 00:44:12;;;;;;;4.95;3.47;;;6.50;91.30;;;;;;5360396;26;20012;-89
2024/04/11 00:46:39;;;;;;;6.72;5.00;;;6.50;90.40;;;;;;5356120;26;19997;-89
2024/04/11 00:49:05;;;;;;;6.05;4.40;;;6.50;90.30;;;;;;5362221;26;20216;-89
2024/04/11 00:51:31;;;;;;;5.00;3.38;;;6.50;90.30;;;;;;5359575;26;20015;-88
2024/04/11 00:53:58;;;;;;;5.78;4.38;;;6.50;90.00;;;;;;5356746;26;20355;-89
2024/04/11 00:56:24;;;;;;;3.95;3.30;;;6.40;90.40;;;;;;5355476;26;20021;-89
2024/04/11 00:58:52;;;;;;;6.65;5.05;;;6.30;90.40;;;;;;5348828;26;20000;-89
2024/04/11 01:01:18;;;;;;;5.28;3.63;;;6.30;91.90;;;;;;5374101;26;20012;-89
2024/04/11 01:03:47;;;;;;;7.25;4.32;;;6.30;91.50;;;;;;5353029;26;19993;-89
2024/04/11 01:06:13;;;;;;;5.93;4.50;;;6.20;91.80;;;;;;5348507;26;20075;-89
2024/04/11 01:08:41;;;;;;;7.32;3.47;;;6.30;91.10;;;;;;5348025;26;20463;-89
2024/04/11 01:11:07;;;;;;;8.25;3.67;;;6.30;90.70;;;;;;5362235;26;20049;-89
2024/04/11 01:13:34;;;;;;;4.38;3.45;;;6.40;90.80;;;;;;5350121;26;19998;-89
2024/04/11 01:16:03;;;;;;;4.00;3.58;;;6.40;91.20;;;;;;5346082;26;20005;-89
2024/04/11 01:18:29;;;;;;;3.50;2.95;;;6.40;91.20;;;;;;5346203;26;20017;-89
2024/04/11 01:20:55;;;;;;;5.88;4.07;;;6.30;91.50;;;;;;5351123;26;20001;-89
2024/04/11 01:23:22;;;;;;;3.42;3.13;;;6.30;90.80;;;;;;5371004;26;20923;-90
2024/04/11 01:25:48;;;;;;;4.28;3.28;;;6.30;90.20;;;;;;5363391;26;20004;-89
2024/04/11 01:28:14;;;;;;;6.75;4.32;;;6.00;92.20;;;;;;5357825;26;20001;-89
2024/04/11 01:30:40;;;;;;;5.03;4.03;;;5.80;93.90;;;;;;5362404;26;20008;-89
2024/04/11 01:33:09;;;;;;;6.85;3.53;;;5.70;93.90;;;;;;5365204;26;20074;-88
2024/04/11 01:35:36;;;;;;;5.70;3.58;;;5.70;93.10;;;;;;5369091;26;20009;-87
2024/04/11 01:38:02;;;;;;;4.68;4.28;;;5.70;93.20;;;;;;5350367;26;20001;-89
2024/04/11 01:40:34;;;;;;;4.95;4.43;;;5.70;93.60;;;;;;5369316;26;19996;-90
2024/04/11 01:43:01;;;;;;;5.53;4.18;;;5.70;93.80;;;;;;5364319;26;20005;-89
2024/04/11 01:45:26;;;;;;;4.88;4.07;;;5.60;93.50;;;;;;5360241;26;20019;-89
2024/04/11 01:47:53;;;;;;;8.25;4.25;;;5.60;93.40;;;;;;5355962;26;20350;-89
2024/04/11 01:50:19;;;;;;;5.32;3.92;;;5.60;93.10;;;;;;5358774;26;20008;-89
2024/04/11 01:52:45;;;;;;;8.35;3.75;;;5.60;92.90;;;;;;5365783;26;19997;-89
2024/04/11 01:55:11;;;;;;;5.78;3.38;;;5.70;92.70;;;;;;5354300;26;20005;-88
2024/04/11 01:57:37;;;;;;;4.95;3.75;;;5.80;92.20;;;;;;5355830;26;19997;-89
2024/04/11 02:00:12;;;;;;;6.05;4.07;;;5.90;91.40;;;;;;5371377;26;20008;-88
2024/04/11 02:02:41;;;;;;;5.80;4.10;;;5.70;91.90;;;;;;5370009;26;20001;-89
2024/04/11 02:05:06;;;;;;;4.82;4.43;;;5.60;92.40;;;;;;5355795;26;20470;-88
2024/04/11 02:07:34;;;;;;;5.35;3.25;;;5.50;92.40;;;;;;5376633;26;20011;-90
2024/04/11 02:10:02;;;;;;;9.57;5.05;;;5.50;93.00;;;;;;5352301;26;20048;-89
2024/04/11 02:12:28;;;;;;;5.55;3.70;;;5.50;92.70;;;;;;5346136;26;20000;-89
2024/04/11 02:14:55;;;;;;;4.80;3.42;;;5.50;92.80;;;;;;5352622;26;20017;-89
2024/04/11 02:17:21;;;;;;;7.60;3.88;;;5.40;93.10;;;;;;5366175;26;20054;-88
2024/04/11 02:19:46;;;;;;;5.07;3.17;;;5.40;93.00;;;;;;5365660;26;20001;-89
2024/04/11 02:22:15;;;;;;;5.47;3.95;;;5.50;92.90;;;;;;5356723;26;20081;-90
2024/04/11 02:24:41;;;;;;;6.50;4.43;;;5.40;93.10;;;;;;5360095;26;19997;-89
2024/04/11 02:27:08;;;;;;;7.95;4.63;;;5.30;94.40;;;;;;5358431;26;19997;-88
2024/04/11 02:29:33;;;;;;;5.85;4.47;;;5.30;95.90;;;;;;5372888;26;20007;-89
2024/04/11 02:31:59;;;;;;;6.75;4.35;;;5.40;94.10;;;;;;5374007;26;19993;-89
2024/04/11 02:34:28;;;;;;;6.30;3.58;;;5.20;93.60;;;;;;5354562;26;19993;-89
2024/04/11 02:36:54;;;;;;;8.27;3.90;;;5.20;93.80;;;;;;5354418;26;20005;-88
2024/04/11 02:39:20;;;;;;;6.18;3.15;;;5.30;94.30;;;;;;5352014;26;20048;-88
2024/04/11 02:41:46;;;;;;;6.15;3.65;;;5.20;94.60;;;;;;5354256;26;19997;-89
2024/04/11 02:44:12;;;;;;;4.18;3.67;;;5.10;95.10;;;;;;5356751;26;19999;-88
2024/04/11 02:46:40;;;;;;;4.82;4.25;;;5.00;96.60;;;;;;5358124;26;20009;-88
2024/04/11 02:49:06;;;;;;;6.85;3.38;;;5.00;96.10;;;;;;5358394;26;20011;-88
2024/04/11 02:51:35;;;;;;;4.07;2.83;;;4.90;96.60;;;;;;5371440;26;20001;-89
2024/04/11 02:54:05;;;;;;;4.97;3.83;;;4.90;95.50;;;;;;5353562;26;20015;-89
2024/04/11 02:56:31;;;;;;;4.25;3.33;;;5.00;94.60;;;;;;5355907;26;20056;-87
2024/04/11 02:58:58;;;;;;;7.10;3.13;;;5.00;94.50;;;;;;5353662;26;20015;-88
2024/04/11 03:01:25;;;;;;;8.05;4.00;;;5.00;93.80;;;;;;5356321;26;20012;-89
2024/04/11 03:03:58;;;;;;;6.65;3.72;;;5.00;94.00;;;;;;5355786;26;20020;-88
2024/04/11 03:06:24;;;;;;;5.50;3.03;;;5.00;94.20;;;;;;5353999;26;20008;-89
2024/04/11 03:08:56;;;;;;;5.53;3.67;;;5.00;93.40;;;;;;5354605;26;20013;-90
2024/04/11 03:11:23;;;;;;;8.75;4.95;;;4.90;93.50;;;;;;5373683;26;20009;-89
2024/04/11 03:13:50;;;;;;;9.68;4.70;;;4.90;94.30;;;;;;5365128;26;20444;-87
2024/04/11 03:16:15;;;;;;;8.05;3.63;;;4.80;94.80;;;;;;5351421;26;20001;-89
2024/04/11 03:18:41;;;;;;;9.93;4.57;;;4.80;95.60;;;;;;5356509;26;20036;-88
2024/04/11 03:21:07;;;;;;;7.13;3.58;;;4.70;95.90;;;;;;5363808;26;20005;-89
2024/04/11 03:23:33;;;;;;;13.68;5.47;;;4.70;95.70;;;;;;5379410;26;20007;-88
2024/04/11 03:25:59;;;;;;;9.50;4.32;;;4.60;94.40;;;;;;5359104;26;20040;-88
2024/04/11 03:28:26;;;;;;;6.80;3.25;;;4.50;95.90;;;;;;5372520;26;20008;-87
2024/04/11 03:30:56;;;;;;;8.07;3.63;;;4.50;95.20;;;;;;5351251;26;20033;-89
2024/04/11 03:33:23;;;;;;;4.18;3.65;;;4.50;95.20;;;;;;5355542;26;20004;-88
2024/04/11 03:35:56;;;;;;;4.97;3.55;;;4.50;94.70;;;;;;5355790;26;20000;-88
2024/04/11 03:38:25;;;;;;;3.20;2.90;;;4.60;94.30;;;;;;5353156;26;20015;-88
2024/04/11 03:41:14;;;;;;;5.50;3.22;;;4.60;94.50;;;;;;5349900;26;20032;-87
2024/04/11 03:43:43;;;;;;;3.70;3.25;;;4.60;93.80;;;;;;5362397;26;20000;-88
2024/04/11 03:46:18;;;;;;;3.90;3.28;;;4.60;94.20;;;;;;5365721;26;20005;-88
2024/04/11 03:48:46;;;;;;;3.85;2.95;;;4.60;93.80;;;;;;5374254;26;19996;-88
2024/04/11 03:51:15;;;;;;;3.75;2.95;;;4.60;93.50;;;;;;5372540;26;20069;-89
2024/04/11 03:53:49;;;;;;;4.03;3.55;;;4.50;94.50;;;;;;5353341;26;20066;-90
2024/04/11 03:56:15;;;;;;;5.63;2.95;;;4.40;95.50;;;;;;5349820;26;20012;-90
2024/04/11 03:58:41;;;;;;;4.18;3.83;;;4.40;94.80;;;;;;5356504;26;20001;-89
2024/04/11 04:01:12;;;;;;;4.20;3.75;;;4.50;94.20;;;;;;5366907;26;19997;-88
2024/04/11 04:03:53;;;;;;;5.50;3.65;;;4.50;93.10;;;;;;5349519;26;20012;-89
2024/04/11 04:06:19;;;;;;;;;;;4.40;93.10;;;;;;5349308;26;20001;-88
2024/04/11 04:08:51;;;;;;;3.33;3.03;;;4.40;93.70;;;;;;5357323;26;19932;-89
2024/04/11 04:11:18;;;;;;;4.15;3.13;;;4.50;93.60;;;;;;5357989;26;20471;-88
2024/04/11 04:13:44;;;;;;;109.68;50.50;;;4.50;93.70;;;;;;5347740;26;20037;-88
2024/04/11 04:16:12;;;;;;;23.48;11.10;;;4.40;94.10;;;;;;5347011;26;20008;-89
2024/04/11 04:18:38;;;;;;;12.20;7.07;;;4.50;93.90;;;;;;5350251;26;20464;-87
2024/04/11 04:21:04;;;;;;;11.57;7.03;;;4.40;93.80;;;;;;5357524;26;20012;-89
2024/04/11 04:23:30;;;;;;;8.32;5.22;;;4.30;94.10;;;;;;5355805;26;20004;-89
2024/04/11 04:26:00;;;;;;;10.65;5.07;;;4.30;94.00;;;;;;5368483;26;19997;-89
2024/04/11 04:28:30;;;;;;;11.55;6.25;;;4.30;94.10;;;;;;5376712;26;20011;-89
2024/04/11 04:31:12;;;;;;;9.82;6.50;;;4.30;94.30;;;;;;5353029;26;20019;-89
2024/04/11 04:33:37;;;;;;;12.07;5.20;;;4.30;94.20;;;;;;5357926;26;20044;-88
2024/04/11 04:36:05;;;;;;;6.32;3.92;;;4.20;95.30;;;;;;5358301;26;20005;-88
2024/04/11 04:38:32;;;;;;;7.75;5.55;;;4.10;95.60;;;;;;5359835;26;20490;-88
2024/04/11 04:40:58;;;;;;;8.20;5.78;;;4.20;95.30;;;;;;5363265;26;20001;-88
2024/04/11 04:43:29;;;;;;;7.53;3.65;;;4.20;94.70;;;;;;5367579;26;19985;-90
2024/04/11 04:45:57;;;;;;;11.45;4.53;;;4.30;94.70;;;;;;5363297;26;20012;-88
2024/04/11 04:48:23;;;;;;;11.52;4.78;;;4.30;94.90;;;;;;5364875;26;20001;-88
2024/04/11 04:50:49;;;;;;;5.97;4.15;;;4.30;94.60;;;;;;5355446;26;20016;-89
2024/04/11 04:53:14;;;;;;;6.22;3.42;;;4.30;95.10;;;;;;5353947;26;20015;-89
2024/04/11 04:55:41;;;;;;;5.28;3.38;;;4.30;96.70;;;;;;5352625;26;20000;-89
2024/04/11 04:58:07;;;;;;;4.25;3.35;;;4.40;98.20;;;;;;5356647;26;20127;-89
2024/04/11 05:00:33;;;;;;;5.05;2.97;;;4.50;98.80;;;;;;5349885;26;20001;-87
2024/04/11 05:03:08;;;;;;;6.13;3.03;;;4.60;99.00;;;;;;5357205;26;20005;-89
2024/04/11 05:05:37;;;;;;;4.78;3.78;;;4.60;97.00;;;;;;5357127;26;20011;-88
2024/04/11 05:08:07;;;;;;;10.25;5.35;;;4.60;95.50;;;;;;5372639;26;19997;-89
2024/04/11 05:10:37;;;;;;;5.45;3.03;;;4.50;95.50;;;;;;5353329;26;20016;-88
2024/04/11 05:13:09;;;;;;;9.65;4.07;;;4.50;95.90;;;;;;5363527;26;20041;-88
2024/04/11 05:15:39;;;;;;;5.63;3.22;;;4.50;94.50;;;;;;5380448;26;20036;-88
2024/04/11 05:18:05;;;;;;;5.45;3.50;;;4.40;94.90;;;;;;5351099;26;20101;-88
2024/04/11 05:20:33;;;;;;;8.85;3.95;;;4.30;95.50;;;;;;5371479;26;20009;-89
2024/04/11 05:22:59;;;;;;;5.75;3.28;;;4.40;95.60;;;;;;5350647;26;20020;-88
2024/04/11 05:25:30;;;;;;;5.43;4.35;;;4.40;96.20;;;;;;5355272;26;19992;-88
2024/04/11 05:27:57;;;;;;;10.10;7.15;;;4.40;95.50;;;;;;5352710;26;20001;-88
2024/04/11 05:30:23;;;;;;;5.40;3.53;;;4.40;95.60;;;;;;5356337;26;20015;-87
2024/04/11 05:32:49;;;;;;;4.07;3.05;;;4.30;96.00;;;;;;5354143;26;20451;-88
2024/04/11 05:35:15;;;;;;;6.07;3.40;;;4.40;96.10;;;;;;5356712;26;20161;-89
2024/04/11 05:37:45;;;;;;;6.50;3.33;;;4.50;96.00;;;;;;5377875;26;20012;-88
2024/04/11 05:40:13;;;;;;;7.65;3.30;;;4.60;95.00;;;;;;5363085;26;20001;-88
2024/04/11 05:42:45;;;;;;;8.05;3.90;;;4.70;94.60;;;;;;5365274;26;20001;-88
2024/04/11 05:45:19;;;;;;;8.40;4.18;;;4.60;94.90;;;;;;5354232;26;20012;-88
2024/04/11 05:47:48;;;;;;;6.70;3.55;;;4.70;95.00;;;;;;5364435;26;20008;-89
2024/04/11 05:50:19;;;;;;;11.45;3.60;;;4.60;95.40;;;;;;5354554;26;19997;-88
2024/04/11 05:52:47;;;;;;;8.82;4.30;;;4.60;96.50;;;;;;5352494;26;20020;-87
2024/04/11 05:55:14;;;;;;;11.40;3.47;;;4.70;96.60;;;;;;5349925;26;20007;-87
2024/04/11 05:57:44;;;;;;;4.32;3.63;;;4.80;96.40;;;;;;5354509;26;20071;-87
2024/04/11 06:00:11;;;;;;;4.82;3.65;;;4.90;96.40;;;;;;5373669;26;20005;-88
2024/04/11 06:02:41;;;;;;;6.90;3.47;;;4.80;96.70;;;;;;5370072;26;20032;-87
2024/04/11 06:05:07;;;;;;;4.60;3.85;;;4.80;96.70;;;;;;5369304;26;20017;-88
2024/04/11 06:07:35;;;;;;;8.00;4.75;;;4.90;96.50;;;;;;5354053;26;20019;-88
2024/04/11 06:10:04;;;;;;;5.90;3.83;;;4.90;96.60;;;;;;5360942;26;20001;-88
2024/04/11 06:12:35;;;;;;;6.63;3.92;;;5.00;96.90;;;;;;5351313;26;20004;-88
2024/04/11 06:15:00;;;;;;;4.20;3.83;;;5.10;97.00;;;;;;5374027;26;20019;-87
2024/04/11 06:17:29;;;;;;;5.70;3.88;;;5.20;96.90;;;;;;5369369;26;20000;-88
2024/04/11 06:19:55;;;;;;;7.68;4.20;;;5.30;96.70;;;;;;5367020;26;20147;-87
2024/04/11 06:22:21;;;;;;;6.43;3.83;;;5.40;96.30;;;;;;5373312;26;20012;-88
2024/04/11 06:24:47;;;;;;;5.07;4.20;;;5.40;96.30;;;;;;5354951;26;20320;-88
2024/04/11 06:27:13;;;;;;;8.27;4.63;;;5.50;96.00;;;;;;5359725;26;20052;-88
2024/04/11 06:29:42;;;;;;;6.25;3.83;;;5.60;95.40;;;;;;5379473;26;20077;-89
2024/04/11 06:32:12;;;;;;;7.43;4.38;;;5.80;95.10;;;;;;5369612;26;20015;-87
2024/04/11 06:34:41;;;;;;;5.38;3.40;;;5.90;94.50;;;;;;5355485;26;20001;-88
2024/04/11 06:37:11;;;;;;;6.45;3.47;;;6.00;93.60;;;;;;5364432;26;20052;-88
2024/04/11 06:39:38;;;;;;;6.63;3.17;;;6.20;91.60;;;;;;5386609;26;20000;-88
2024/04/11 06:42:13;;;;;;;6.78;3.47;;;6.30;90.80;;;;;;5350902;26;20008;-87
2024/04/11 06:44:40;;;;;;;4.53;3.08;;;6.40;90.00;;;;;;5361696;26;20001;-88
2024/04/11 06:47:06;;;;;;;6.28;3.30;;;6.50;91.10;;;;;;5349481;26;20017;-88
2024/04/11 06:49:35;;;;;;;8.05;3.75;;;6.60;91.20;;;;;;5373078;26;20011;-89
2024/04/11 06:52:00;;;;;;;6.82;3.70;;;6.80;91.10;;;;;;5354322;26;20008;-89
2024/04/11 06:54:29;;;;;;;7.20;3.65;;;6.90;89.40;;;;;;5355600;26;19997;-88
2024/04/11 06:56:57;;;;;;;9.02;3.65;;;7.10;87.50;;;;;;5364612;26;20093;-89
2024/04/11 06:59:24;;;;;;;6.40;3.25;;;7.30;87.10;;;;;;5354909;26;20067;-88
2024/04/11 07:01:51;;;;;;;5.90;3.13;;;7.50;86.80;;;;;;5374313;26;20004;-88
2024/04/11 07:04:18;;;;;;;6.10;3.30;;;7.60;86.50;;;;;;5388640;26;20039;-87
2024/04/11 07:06:46;;;;;;;5.35;3.22;;;7.70;85.40;;;;;;5386710;26;20012;-88
2024/04/11 07:09:11;;;;;;;;;;;7.80;83.40;;;;;;5372712;26;20001;-88
2024/04/11 07:11:40;;;;;;;5.50;3.53;;;7.90;82.00;;;;;;5353694;26;20003;-89
2024/04/11 07:14:11;;;;;;;6.97;2.88;;;8.10;82.00;;;;;;5358320;26;20009;-88
2024/04/11 07:16:44;;;;;;;14.77;3.55;;;8.20;82.20;;;;;;5359330;26;20000;-87
2024/04/11 07:19:11;;;;;;;6.32;3.78;;;8.30;81.80;;;;;;5349073;26;20001;-89
2024/04/11 07:21:43;;;;;;;5.88;3.40;;;8.40;81.70;;;;;;5361526;26;20004;-88
2024/04/11 07:24:09;;;;;;;6.53;3.70;;;8.60;81.40;;;;;;5357713;26;20339;-90
2024/04/11 07:26:38;;;;;;;5.20;2.85;;;8.80;80.70;;;;;;5371987;26;20001;-88
2024/04/11 07:29:05;;;;;;;4.07;2.80;;;8.80;78.20;;;;;;5357517;26;20001;-88
2024/04/11 07:31:35;;;;;;;5.53;3.92;;;8.90;79.70;;;;;;5358802;26;20004;-88
2024/04/11 07:34:04;;;;;;;10.20;3.63;;;9.00;80.70;;;;;;5353730;26;20009;-88
2024/04/11 07:36:32;;;;;;;5.65;2.92;;;9.20;80.00;;;;;;5363650;26;20007;-88
2024/04/11 07:38:58;;;;;;;5.57;2.75;;;9.30;79.70;;;;;;5370847;26;20000;-88
2024/04/11 07:41:27;;;;;;;7.65;3.20;;;9.50;78.80;;;;;;5366939;26;20015;-88
2024/04/11 07:44:00;;;;;;;11.10;4.43;;;9.70;80.20;;;;;;5362380;26;20073;-88
2024/04/11 07:46:28;;;;;;;7.00;3.15;;;9.80;76.70;;;;;;5351960;26;20001;-89
2024/04/11 07:48:55;;;;;;;7.20;3.85;;;9.80;76.30;;;;;;5357633;26;20001;-88
2024/04/11 07:51:21;;;;;;;4.88;3.97;;;10.10;75.70;;;;;;5348008;26;20001;-88
2024/04/11 07:53:48;;;;;;;10.25;4.18;;;10.10;77.00;;;;;;5347270;26;20079;-89
2024/04/11 07:56:21;;;;;;;8.02;5.18;;;10.30;77.20;;;;;;5351833;26;20032;-89
2024/04/11 07:58:48;;;;;;;11.18;4.90;;;10.40;75.50;;;;;;5367110;26;20004;-89
2024/04/11 08:01:22;;;;;;;8.25;6.10;;;10.60;75.00;;;;;;5361064;26;20011;-91
2024/04/11 08:03:49;;;;;;;8.20;5.05;;;10.50;75.00;;;;;;5351616;26;20005;-89
2024/04/11 08:06:16;;;;;;;5.78;4.57;;;10.70;74.40;;;;;;5349795;26;20005;-89
2024/04/11 08:08:42;;;;;;;8.75;3.80;;;10.80;73.50;;;;;;5350852;26;19997;-88
2024/04/11 08:11:10;;;;;;;9.90;5.13;;;10.80;73.30;;;;;;5349830;26;20005;-89
2024/04/11 08:13:36;;;;;;;6.07;4.75;;;10.90;72.10;;;;;;5350572;26;20001;-89
2024/04/11 08:16:04;;;;;;;6.03;4.57;;;11.10;71.00;;;;;;5366671;26;20013;-90
2024/04/11 08:18:31;;;;;;;7.90;4.38;;;11.20;70.10;;;;;;5344488;26;20007;-90
2024/04/11 08:20:57;;;;;;;8.27;3.90;;;11.40;69.90;;;;;;5347789;26;20003;-89
2024/04/11 08:23:24;;;;;;;9.63;4.85;;;11.50;70.20;;;;;;5347672;26;19997;-90
2024/04/11 08:25:55;;;;;;;4.53;3.50;;;11.60;68.70;;;;;;5347329;26;20016;-90
2024/04/11 08:28:21;;;;;;;9.10;4.45;;;11.70;66.80;;;;;;5359978;26;19997;-90
2024/04/11 08:30:48;;;;;;;9.65;4.15;;;11.90;66.20;;;;;;5369325;26;20012;-90
2024/04/11 08:33:14;;;;;;;6.20;2.58;;;12.00;65.90;;;;;;5356800;26;20379;-90
2024/04/11 08:35:44;;;;;;;3.92;3.03;;;12.20;63.90;;;;;;5348404;26;20362;-90
2024/04/11 08:38:12;;;;;;;5.63;3.53;;;12.10;63.00;;;;;;5348415;26;20016;-90
2024/04/11 08:40:44;;;;;;;8.50;4.60;;;12.40;62.90;;;;;;5357759;26;20004;-90
2024/04/11 08:43:15;;;;;;;6.32;4.63;;;12.80;58.50;;;;;;5343253;26;20001;-90
2024/04/11 08:45:44;;;;;;;6.63;4.55;;;13.00;57.10;;;;;;5360235;26;20007;-90
2024/04/11 08:48:10;;;;;;;4.85;2.85;;;13.30;55.50;;;;;;5367107;26;20325;-90
2024/04/11 08:50:41;;;;;;;8.88;4.38;;;13.30;53.00;;;;;;5365216;26;20001;-90
2024/04/11 08:53:09;;;;;;;7.20;4.50;;;13.30;54.00;;;;;;5344541;26;20005;-90
2024/04/11 08:55:36;;;;;;;5.90;4.03;;;13.40;55.10;;;;;;5356195;26;20006;-91
2024/04/11 08:58:02;;;;;;;5.90;3.50;;;13.70;58.60;;;;;;5357217;26;20005;-90
2024/04/11 09:00:30;;;;;;;6.05;4.55;;;13.80;56.20;;;;;;5364708;26;20025;-90
2024/04/11 09:02:56;;;;;;;7.00;4.15;;;14.10;56.40;;;;;;5364586;26;20004;-90
2024/04/11 09:05:23;;;;;;;7.95;4.60;;;14.20;55.70;;;;;;5348657;26;20015;-90
2024/04/11 09:07:50;;;;;;;9.80;3.83;;;14.30;55.40;;;;;;5352991;26;20012;-91
2024/04/11 09:10:19;;;;;;;4.90;4.00;;;14.50;55.20;;;;;;5358462;26;20019;-90
2024/04/11 09:12:47;;;;;;;7.68;3.90;;;14.70;54.10;;;;;;5370754;26;20017;-90
2024/04/11 09:15:15;;;;;;;;;;;14.70;53.30;;;;;;5359500;26;20001;-90
2024/04/11 09:17:45;;;;;;;5.95;4.00;;;14.90;54.40;;;;;;5357759;26;19932;-91
2024/04/11 09:20:13;;;;;;;7.60;4.25;;;14.90;52.80;;;;;;5356318;26;20011;-90
2024/04/11 09:22:59;;;;;;;5.68;3.70;;;15.20;52.60;;;;;;5355266;26;20061;-94
2024/04/11 09:25:30;;;;;;;5.28;2.97;;;15.50;51.60;;;;;;5388042;26;20000;-92
2024/04/11 09:27:59;;;;;;;7.30;3.33;;;15.60;50.00;;;;;;5375612;26;20059;-91
2024/04/11 09:30:34;;;;;;;5.38;3.55;;;15.50;48.90;;;;;;5365369;26;20008;-91
2024/04/11 09:33:08;;;;;;;5.35;3.33;;;15.20;49.30;;;;;;5349641;26;20013;-90
2024/04/11 09:35:40;;;;;;;3.38;2.42;;;15.10;47.30;;;;;;5363706;26;20016;-91
2024/04/11 09:38:12;;;;;;;12.45;5.28;;;15.20;48.10;;;;;;5343177;26;20439;-91
2024/04/11 09:40:50;;;;;;;8.30;4.15;;;15.50;47.50;;;;;;5357547;26;20142;-91
2024/04/11 09:43:17;;;;;;;10.45;3.95;;;15.60;46.40;;;;;;5343938;26;20004;-91
2024/04/11 09:45:56;;;;;;;11.55;4.05;;;15.70;45.60;;;;;;5348110;26;20015;-91
2024/04/11 09:48:24;;;;;;;5.45;4.30;;;16.00;45.40;;;;;;5347259;26;20005;-91
2024/04/11 09:50:51;;;;;;;5.20;2.47;;;16.30;44.50;;;;;;5351633;26;20144;-90
2024/04/11 09:53:28;;;;;;;5.55;3.10;;;16.10;43.00;;;;;;5355379;26;20001;-91
2024/04/11 09:56:00;;;;;;;4.32;2.95;;;16.50;42.50;;;;;;5346107;26;20001;-90
2024/04/11 09:58:33;;;;;;;10.95;3.22;;;17.00;41.10;;;;;;5371207;26;19996;-91
2024/04/11 10:01:05;;;;;;;4.85;2.65;;;17.20;39.50;;;;;;5352912;26;20008;-90
2024/04/11 10:03:33;;;;;;;4.68;2.67;;;17.30;39.00;;;;;;5352848;26;20181;-90
2024/04/11 10:06:02;;;;;;;4.63;2.90;;;17.40;38.50;;;;;;5350066;26;20072;-91
2024/04/11 10:08:36;;;;;;;3.88;3.45;;;17.90;37.90;;;;;;5351064;26;20035;-91
2024/04/11 10:11:10;;;;;;;4.82;2.10;;;17.90;37.70;;;;;;5351977;26;20001;-90
2024/04/11 10:13:40;;;;;;;4.30;2.15;;;18.10;36.50;;;;;;5350990;26;19997;-91
2024/04/11 10:16:22;;;;;;;3.95;2.53;;;18.20;36.10;;;;;;5353506;26;20005;-90
2024/04/11 10:19:00;;;;;;;5.47;2.17;;;18.10;36.40;;;;;;5349751;26;20025;-91
2024/04/11 10:21:27;;;;;;;6.93;2.22;;;18.40;35.30;;;;;;5350977;26;20426;-91
2024/04/11 10:23:54;;;;;;;5.57;1.95;;;18.40;33.90;;;;;;5364391;26;19996;-91
2024/04/11 10:26:32;;;;;;;6.88;2.60;;;18.20;35.20;;;;;;5371286;26;20008;-91
2024/04/11 10:29:10;;;;;;;6.55;2.08;;;18.60;35.20;;;;;;5360241;26;20011;-91
2024/04/11 10:31:36;;;;;;;2.38;1.92;;;18.60;33.20;;;;;;5344053;26;20001;-92
2024/04/11 10:34:11;;;;;;;3.33;2.85;;;18.90;33.30;;;;;;5351224;26;20005;-92
2024/04/11 10:36:42;;;;;;;4.07;1.90;;;19.00;33.40;;;;;;5349953;26;20019;-91
2024/04/11 10:39:08;;;;;;;6.00;2.28;;;18.90;31.90;;;;;;5354978;26;20005;-92
2024/04/11 10:41:35;;;;;;;5.47;2.78;;;19.20;33.40;;;;;;5364771;26;20000;-92
2024/04/11 10:44:05;;;;;;;3.25;1.15;;;19.40;31.00;;;;;;5360140;26;20354;-92
2024/04/11 10:46:32;;;;;;;4.45;1.63;;;19.30;31.10;;;;;;5343444;26;20014;-91
2024/04/11 10:49:15;;;;;;;4.68;1.25;;;19.50;30.70;;;;;;5351577;26;19997;-91
2024/04/11 10:51:42;;;;;;;6.63;1.95;;;19.80;29.00;;;;;;5345584;26;19998;-92
2024/04/11 10:54:12;;;;;;;2.85;1.02;;;19.90;28.40;;;;;;5355121;26;20457;-91
2024/04/11 10:56:43;;;;;;;2.05;1.92;;;19.70;29.20;;;;;;5358605;26;20001;-92
2024/04/11 10:59:34;;;;;;;3.92;2.10;;;20.00;28.00;;;;;;5365165;26;19997;-91
2024/04/11 11:02:09;;;;;;;3.25;1.45;;;20.30;28.50;;;;;;5349168;26;21826;-91
2024/04/11 11:04:43;;;;;;;4.30;1.77;;;20.40;27.80;;;;;;5351964;26;20013;-92
2024/04/11 11:07:12;;;;;;;3.05;1.55;;;20.50;28.70;;;;;;5346475;26;20009;-90
2024/04/11 11:09:42;;;;;;;3.17;1.13;;;20.70;27.00;;;;;;5351101;26;19997;-91
2024/04/11 11:12:12;;;;;;;3.67;1.50;;;20.80;26.20;;;;;;5346642;26;20001;-92
2024/04/11 11:14:38;;;;;;;3.20;1.23;;;20.60;26.30;;;;;;5352766;26;20046;-93
2024/04/11 11:17:17;;;;;;;2.05;1.60;;;20.80;24.50;;;;;;5349403;26;20788;-91
2024/04/11 11:19:43;;;;;;;3.13;1.33;;;21.10;25.60;;;;;;5368445;26;20462;-92
2024/04/11 11:22:10;;;;;;;3.85;1.33;;;21.10;25.50;;;;;;5358267;26;20001;-92
2024/04/11 11:24:37;;;;;;;2.80;1.05;;;21.30;25.90;;;;;;5350809;26;20008;-91
2024/04/11 11:27:05;;;;;;;2.25;1.38;;;21.40;24.80;;;;;;5351445;26;20013;-92
2024/04/11 11:29:31;;;;;;;3.50;1.30;;;21.20;25.80;;;;;;5343813;26;20001;-92
2024/04/11 11:32:04;;;;;;;3.10;1.05;;;21.20;26.50;;;;;;5358193;26;20047;-91
2024/04/11 11:34:42;;;;;;;5.32;1.20;;;21.50;26.00;;;;;;5343381;26;20462;-91
2024/04/11 11:37:14;;;;;;;4.93;1.20;;;21.70;24.60;;;;;;5347136;26;20032;-92
2024/04/11 11:39:44;;;;;;;2.75;1.50;;;21.70;24.70;;;;;;5360375;26;19996;-92
2024/04/11 11:42:23;;;;;;;3.88;1.20;;;22.10;23.80;;;;;;5358573;26;20041;-92
2024/04/11 11:47:45;;;;;;;3.38;1.02;;;22.00;23.60;;;;;;5375631;26;20033;-92
2024/04/11 11:50:21;;;;;;;3.97;1.23;;;22.00;23.20;;;;;;5372865;26;20000;-92
2024/04/11 11:52:50;;;;;;;1.70;0.90;;;22.30;23.10;;;;;;5374187;26;20570;-92
2024/04/11 11:55:17;;;;;;;3.15;1.25;;;22.60;23.40;;;;;;5363962;26;20005;-91
2024/04/11 11:57:55;;;;;;;4.55;1.80;;;23.30;22.30;;;;;;5356352;26;20021;-92
2024/04/11 12:00:23;;;;;;;2.67;1.15;;;23.60;22.10;;;;;;5348427;26;20048;-92
2024/04/11 12:03:00;;;;;;;1.23;0.57;;;23.70;22.20;;;;;;5359393;26;20331;-92
2024/04/11 12:05:33;;;;;;;2.85;1.35;;;23.60;22.60;;;;;;5356181;26;20000;-92
2024/04/11 12:08:06;;;;;;;4.38;1.77;;;23.10;23.90;;;;;;5353402;26;20007;-92
2024/04/11 12:11:15;;;;;;;2.58;1.55;;;22.10;23.20;;;;;;5341018;26;20079;-92
2024/04/11 12:16:06;;;;;;;2.67;1.67;;;20.90;24.30;;;;;;5345075;26;20083;-91
2024/04/11 12:18:31;;;;;;;7.38;1.13;;;20.70;24.90;;;;;;5351168;26;20009;-92
2024/04/11 12:20:57;;;;;;;3.92;1.95;;;21.10;25.80;;;;;;5368053;26;20000;-92
2024/04/11 12:23:24;;;;;;;2.22;0.93;;;20.70;25.60;;;;;;5372705;26;20001;-92
2024/04/11 12:25:50;;;;;;;2.92;1.30;;;20.90;25.50;;;;;;5372568;26;20004;-92
2024/04/11 12:28:20;;;;;;;2.47;1.25;;;20.90;23.70;;;;;;5350850;26;20025;-91
2024/04/11 12:30:46;;;;;;;2.92;1.25;;;21.10;23.80;;;;;;5360020;26;20008;-93
2024/04/11 12:33:16;;;;;;;3.78;1.55;;;21.20;23.60;;;;;;5352636;26;20001;-91
2024/04/11 12:35:45;;;;;;;2.28;1.20;;;21.00;24.50;;;;;;5367390;26;20089;-93
2024/04/11 12:38:20;;;;;;;2.70;0.90;;;21.10;24.20;;;;;;5368175;26;20163;-92
2024/04/11 12:40:48;;;;;;;2.05;0.90;;;21.00;23.50;;;;;;5359305;26;20016;-91
2024/04/11 12:43:18;;;;;;;1.70;1.00;;;21.10;23.90;;;;;;5350972;26;20019;-92
2024/04/11 12:45:53;;;;;;;3.80;1.75;;;20.70;23.20;;;;;;5350947;26;19996;-92
2024/04/11 12:48:20;;;;;;;2.80;1.58;;;20.50;23.80;;;;;;5350633;26;20005;-91
2024/04/11 12:50:50;;;;;;;3.20;1.40;;;20.20;24.30;;;;;;5350335;26;20015;-93
2024/04/11 12:53:23;;;;;;;3.20;1.70;;;20.70;24.20;;;;;;5350080;26;20007;-92
2024/04/11 12:55:55;;;;;;;3.38;1.27;;;20.80;24.50;;;;;;5348727;26;20151;-91
2024/04/11 12:58:24;;;;;;;4.10;1.67;;;20.80;24.20;;;;;;5358910;26;20070;-91
2024/04/11 13:01:08;;;;;;;1.95;1.15;;;21.00;23.00;;;;;;5348496;26;20065;-92
2024/04/11 13:06:30;;;;;;;2.35;1.27;;;21.40;23.10;;;;;;5346185;26;20001;-92
2024/04/11 13:09:09;;;;;;;1.67;1.55;;;21.90;23.20;;;;;;5367229;26;20008;-92
2024/04/11 13:11:39;;;;;;;11.13;1.73;;;21.90;22.40;;;;;;5359381;26;20000;-92